Time,TemperatureF,DewpointF,PressureIn,WindDirection,WindDirectionDegrees,WindSpeedMPH,WindSpeedGustMPH,Humidity,HourlyPrecipIn,Conditions,Clouds,dailyrainin,SoftwareType,DateUTC
2013-07-28 00:02:00,72.0,61.0,-100.00,SSW,205,5.0,6.0,70,-99.99,,,-99.99,,2013-07-28 04:02:00,
2013-07-28 00:12:00,71.0,62.0,-100.00,SSW,200,2.0,4.0,73,-99.99,,,-99.99,,2013-07-28 04:12:00,
2013-07-28 00:22:00,71.0,62.0,-100.00,SSW,200,2.0,4.0,73,-99.99,,,-99.99,,2013-07-28 04:22:00,
2013-07-28 00:32:00,70.0,62.0,-100.00,North,5,0.0,4.0,74,-99.99,,,-99.99,,2013-07-28 04:32:00,
2013-07-28 01:02:00,70.0,63.0,-100.00,SSW,205,3.0,5.0,78,-99.99,,,-99.99,,2013-07-28 05:02:00,
2013-07-28 01:12:00,69.0,63.0,-100.00,SE,140,0.0,3.0,81,-99.99,,,-99.99,,2013-07-28 05:12:00,
2013-07-28 01:22:00,69.0,63.0,-100.00,SE,140,0.0,3.0,81,-99.99,,,-99.99,,2013-07-28 05:22:00,
2013-07-28 01:32:00,69.0,63.0,-100.00,SW,235,3.0,4.0,81,-99.99,,,-99.99,,2013-07-28 05:32:00,
2013-07-28 01:43:00,69.0,63.0,-100.00,SSW,210,1.0,3.0,83,-99.99,,,-99.99,,2013-07-28 05:43:00,
2013-07-28 02:02:00,68.0,63.0,-100.00,SW,215,2.0,4.0,84,-99.99,,,-99.99,,2013-07-28 06:02:00,
2013-07-28 02:22:00,68.0,63.0,-100.00,SW,225,3.0,4.0,86,-99.99,,,-99.99,,2013-07-28 06:22:00,
2013-07-28 02:32:00,67.0,63.0,-100.00,SSW,205,2.0,4.0,87,-99.99,,,-99.99,,2013-07-28 06:32:00,
2013-07-28 03:02:00,67.0,64.0,-100.00,SW,235,1.0,5.0,89,-99.99,,,-99.99,,2013-07-28 07:02:00,
2013-07-28 03:12:00,68.0,64.0,-100.00,SSW,210,5.0,6.0,86,-99.99,,,-99.99,,2013-07-28 07:12:00,
2013-07-28 03:32:00,68.0,64.0,-100.00,South,175,1.0,6.0,85,-99.99,,,-99.99,,2013-07-28 07:32:00,
2013-07-28 03:43:00,69.0,64.0,-100.00,SW,235,2.0,6.0,85,-99.99,,,-99.99,,2013-07-28 07:43:00,
2013-07-28 04:02:00,69.0,64.0,-100.00,NE,55,0.0,5.0,85,-99.99,,,-99.99,,2013-07-28 08:02:00,
2013-07-28 04:12:00,69.0,64.0,-100.00,SW,215,4.0,7.0,85,-99.99,,,-99.99,,2013-07-28 08:12:00,
2013-07-28 04:33:00,69.0,64.0,-100.00,SSW,210,4.0,6.0,85,-99.99,,,-99.99,,2013-07-28 08:33:00,
2013-07-28 04:53:00,69.0,64.0,-100.00,SW,220,5.0,7.0,85,-99.99,,,-99.99,,2013-07-28 08:53:00,
2013-07-28 05:02:00,69.0,64.0,-100.00,SW,220,5.0,7.0,85,-99.99,,,-99.99,,2013-07-28 09:02:00,
2013-07-28 05:12:00,69.0,64.0,-100.00,SSW,195,4.0,8.0,86,-99.99,,,-99.99,,2013-07-28 09:12:00,
2013-07-28 05:22:00,69.0,64.0,-100.00,SSW,195,4.0,8.0,86,-99.99,,,-99.99,,2013-07-28 09:22:00,
2013-07-28 05:32:00,69.0,65.0,-100.00,South,190,2.0,6.0,87,-99.99,,,-99.99,,2013-07-28 09:32:00,
2013-07-28 06:02:00,68.0,66.0,-100.00,NW,305,4.0,9.0,92,-99.99,,,-99.99,,2013-07-28 10:02:00,
2013-07-28 06:12:00,67.0,65.0,-100.00,NNW,345,4.0,9.0,93,-99.99,,,-99.99,,2013-07-28 10:12:00,
2013-07-28 06:22:00,67.0,65.0,-100.00,NNW,345,4.0,9.0,93,-99.99,,,-99.99,,2013-07-28 10:22:00,
2013-07-28 06:33:00,67.0,65.0,-100.00,West,265,4.0,11.0,94,-99.99,,,-99.99,,2013-07-28 10:33:00,
2013-07-28 07:02:00,67.0,65.0,-100.00,SW,235,1.0,7.0,94,-99.99,,,-99.99,,2013-07-28 11:02:00,
2013-07-28 07:12:00,67.0,65.0,-100.00,SW,230,4.0,6.0,94,-99.99,,,-99.99,,2013-07-28 11:12:00,
2013-07-28 07:22:00,67.0,65.0,-100.00,SW,230,4.0,6.0,94,-99.99,,,-99.99,,2013-07-28 11:22:00,
2013-07-28 07:33:00,67.0,65.0,-100.00,ENE,65,2.0,5.0,94,-99.99,,,-99.99,,2013-07-28 11:33:00,
2013-07-28 08:03:00,67.0,66.0,-100.00,SSW,205,4.0,5.0,94,-99.99,,,-99.99,,2013-07-28 12:03:00,
2013-07-28 08:13:00,67.0,66.0,-100.00,SSW,205,6.0,8.0,94,-99.99,,,-99.99,,2013-07-28 12:13:00,
2013-07-28 08:22:00,67.0,66.0,-100.00,SSW,205,6.0,8.0,94,-99.99,,,-99.99,,2013-07-28 12:22:00,
2013-07-28 08:33:00,68.0,66.0,-100.00,SW,235,4.0,7.0,94,-99.99,,,-99.99,,2013-07-28 12:33:00,
2013-07-28 09:02:00,68.0,66.0,-100.00,SW,230,5.0,8.0,94,-99.99,,,-99.99,,2013-07-28 13:02:00,
2013-07-28 09:12:00,68.0,66.0,-100.00,SSW,205,3.0,5.0,94,-99.99,,,-99.99,,2013-07-28 13:12:00,
2013-07-28 09:22:00,68.0,66.0,-100.00,SSW,205,3.0,5.0,94,-99.99,,,-99.99,,2013-07-28 13:22:00,
2013-07-28 09:32:00,69.0,67.0,-100.00,South,180,3.0,5.0,94,-99.99,,,-99.99,,2013-07-28 13:32:00,
2013-07-28 10:02:00,69.0,68.0,-100.00,SSE,160,1.0,6.0,94,-99.99,,,-99.99,,2013-07-28 14:02:00,
2013-07-28 10:23:00,70.0,68.0,-100.00,SW,225,3.0,5.0,94,-99.99,,,-99.99,,2013-07-28 14:23:00,
2013-07-28 10:33:00,70.0,68.0,-100.00,SSW,205,3.0,5.0,94,-99.99,,,-99.99,,2013-07-28 14:33:00,
2013-07-28 11:03:00,72.0,70.0,-100.00,South,190,4.0,8.0,93,-99.99,,,-99.99,,2013-07-28 15:03:00,
2013-07-28 11:13:00,73.0,71.0,-100.00,WSW,245,5.0,10.0,91,-99.99,,,-99.99,,2013-07-28 15:13:00,
2013-07-28 11:23:00,73.0,71.0,-100.00,WSW,245,5.0,10.0,91,-99.99,,,-99.99,,2013-07-28 15:23:00,
2013-07-28 11:33:00,73.0,69.0,-100.00,WSW,250,7.0,11.0,87,-99.99,,,-99.99,,2013-07-28 15:33:00,
2013-07-28 12:03:00,76.0,70.0,-100.00,WSW,250,3.0,11.0,83,-99.99,,,-99.99,,2013-07-28 16:03:00,
2013-07-28 12:12:00,75.0,69.0,-100.00,WSW,255,5.0,10.0,82,-99.99,,,-99.99,,2013-07-28 16:12:00,
2013-07-28 12:22:00,75.0,69.0,-100.00,WSW,255,5.0,10.0,82,-99.99,,,-99.99,,2013-07-28 16:22:00,
2013-07-28 12:33:00,76.0,70.0,-100.00,SW,225,3.0,12.0,82,-99.99,,,-99.99,,2013-07-28 16:33:00,
2013-07-28 13:02:00,77.0,70.0,-100.00,WSW,245,4.0,10.0,79,-99.99,,,-99.99,,2013-07-28 17:02:00,
2013-07-28 13:13:00,76.0,69.0,-100.00,NW,320,2.0,7.0,79,-99.99,,,-99.99,,2013-07-28 17:13:00,
2013-07-28 13:23:00,76.0,69.0,-100.00,NW,320,2.0,7.0,79,-99.99,,,-99.99,,2013-07-28 17:23:00,
2013-07-28 13:33:00,77.0,69.0,-100.00,North,0,2.0,9.0,78,-99.99,,,-99.99,,2013-07-28 17:33:00,
2013-07-28 14:03:00,77.0,69.0,-100.00,West,270,2.0,8.0,76,-99.99,,,-99.99,,2013-07-28 18:03:00,
2013-07-28 14:13:00,78.0,69.0,-100.00,West,270,6.0,13.0,74,-99.99,,,-99.99,,2013-07-28 18:13:00,
2013-07-28 14:33:00,80.0,69.0,-100.00,WSW,240,10.0,15.0,71,-99.99,,,-99.99,,2013-07-28 18:33:00,
2013-07-28 14:52:00,80.0,68.0,-100.00,WNW,290,6.0,12.0,68,-99.99,,,-99.99,,2013-07-28 18:52:00,
2013-07-28 15:03:00,80.0,68.0,-100.00,WNW,290,6.0,12.0,68,-99.99,,,-99.99,,2013-07-28 19:03:00,
2013-07-28 15:13:00,80.0,70.0,-100.00,WNW,285,9.0,18.0,71,-99.99,,,-99.99,,2013-07-28 19:13:00,
2013-07-28 15:33:00,79.0,70.0,-100.00,WNW,295,2.0,10.0,72,-99.99,,,-99.99,,2013-07-28 19:33:00,
2013-07-28 15:52:00,77.0,71.0,-100.00,WSW,240,4.0,10.0,82,-99.99,,,-99.99,,2013-07-28 19:52:00,
2013-07-28 16:03:00,77.0,71.0,-100.00,WSW,240,4.0,10.0,82,-99.99,,,-99.99,,2013-07-28 20:03:00,
2013-07-28 16:13:00,76.0,72.0,-100.00,SW,225,3.0,7.0,87,-99.99,,,-99.99,,2013-07-28 20:13:00,
2013-07-28 16:33:00,74.0,71.0,-100.00,East,95,7.0,13.0,92,-99.99,,,-99.99,,2013-07-28 20:33:00,
2013-07-28 16:52:00,71.0,69.0,-100.00,ENE,60,3.0,6.0,94,-99.99,,,-99.99,,2013-07-28 20:52:00,
2013-07-28 17:03:00,71.0,69.0,-100.00,ENE,60,3.0,6.0,94,-99.99,,,-99.99,,2013-07-28 21:03:00,
2013-07-28 17:23:00,71.0,69.0,-100.00,WNW,300,2.0,4.0,94,-99.99,,,-99.99,,2013-07-28 21:23:00,
2013-07-28 17:33:00,71.0,70.0,-100.00,WSW,240,2.0,6.0,94,-99.99,,,-99.99,,2013-07-28 21:33:00,
2013-07-28 18:02:00,72.0,70.0,-100.00,SW,220,5.0,7.0,94,-99.99,,,-99.99,,2013-07-28 22:02:00,
2013-07-28 18:12:00,72.0,70.0,-100.00,SW,235,4.0,9.0,94,-99.99,,,-99.99,,2013-07-28 22:12:00,
2013-07-28 18:22:00,72.0,70.0,-100.00,SW,235,4.0,9.0,94,-99.99,,,-99.99,,2013-07-28 22:22:00,
2013-07-28 18:32:00,72.0,70.0,-100.00,WSW,255,6.0,10.0,94,-99.99,,,-99.99,,2013-07-28 22:32:00,
2013-07-28 19:03:00,72.0,69.0,-100.00,SW,225,5.0,11.0,91,-99.99,,,-99.99,,2013-07-28 23:03:00,
2013-07-28 19:12:00,72.0,69.0,-100.00,WSW,245,9.0,13.0,89,-99.99,,,-99.99,,2013-07-28 23:12:00,
2013-07-28 19:22:00,72.0,69.0,-100.00,WSW,245,9.0,13.0,89,-99.99,,,-99.99,,2013-07-28 23:22:00,
2013-07-28 19:33:00,74.0,69.0,-100.00,WSW,240,7.0,12.0,87,-99.99,,,-99.99,,2013-07-28 23:33:00,
2013-07-28 20:03:00,73.0,70.0,-100.00,WSW,250,5.0,11.0,89,-99.99,,,-99.99,,2013-07-29 00:03:00,
2013-07-28 20:12:00,73.0,70.0,-100.00,SSW,195,3.0,13.0,90,-99.99,,,-99.99,,2013-07-29 00:12:00,
2013-07-28 20:29:00,71.0,69.0,-100.00,NE,55,2.0,10.0,92,-99.99,,,-99.99,,2013-07-29 00:29:00,
2013-07-28 20:32:00,72.0,69.0,-100.00,SW,220,6.0,10.0,91,-99.99,,,-99.99,,2013-07-29 00:32:00,
2013-07-28 20:52:00,72.0,70.0,-100.00,SW,235,6.0,9.0,92,-99.99,,,-99.99,,2013-07-29 00:52:00,
2013-07-28 21:02:00,72.0,69.0,-100.00,SSW,210,3.0,8.0,92,-99.99,,,-99.99,,2013-07-29 01:02:00,
2013-07-28 21:14:00,71.0,69.0,-100.00,NE,55,2.0,10.0,92,-99.99,,,-99.99,,2013-07-29 01:14:00,
2013-07-28 21:38:00,71.0,69.0,-100.00,WSW,240,3.0,8.0,92,-99.99,,,-99.99,,2013-07-29 01:38:00,
2013-07-28 21:47:00,71.0,68.0,-100.00,West,270,4.0,9.0,92,-99.99,,,-99.99,,2013-07-29 01:47:00,
2013-07-28 22:07:00,71.0,68.0,-100.00,SW,235,3.0,9.0,92,-99.99,,,-99.99,,2013-07-29 02:07:00,
2013-07-28 22:27:00,71.0,68.0,-100.00,North,0,2.0,6.0,92,-99.99,,,-99.99,,2013-07-29 02:27:00,
2013-07-28 22:39:00,71.0,68.0,-100.00,SSW,200,2.0,8.0,92,-99.99,,,-99.99,,2013-07-29 02:39:00,
2013-07-28 23:05:00,70.0,68.0,-100.00,SSE,165,2.0,6.0,92,-99.99,,,-99.99,,2013-07-29 03:05:00,
2013-07-28 23:17:00,70.0,68.0,-100.00,SSE,165,2.0,6.0,92,-99.99,,,-99.99,,2013-07-29 03:17:00,
2013-07-28 23:37:00,70.0,68.0,-100.00,SW,235,4.0,5.0,92,-99.99,,,-99.99,,2013-07-29 03:37:00,